sensor_id;sensor_type;location;lat;lon;timestamp;P1;durP1;ratioP1;P2;durP2;ratioP2
1765;SDS011;880;52.452;8.656;2024-03-22T00:02:06;20.52;;;12.65;;
1765;SDS011;880;52.452;8.656;2024-03-22T00:04:35;18.52;;;14.27;;
1765;SDS011;880;52.452;8.656;2024-03-22T00:07:02;22.65;;;13.43;;
1765;SDS011;880;52.452;8.656;2024-03-22T00:09:28;21.25;;;13.90;;
1765;SDS011;880;52.452;8.656;2024-03-22T00:11:54;23.88;;;13.68;;
1765;SDS011;880;52.452;8.656;2024-03-22T00:14:20;15.52;;;12.75;;
1765;SDS011;880;52.452;8.656;2024-03-22T00:16:46;20.90;;;14.90;;
1765;SDS011;880;52.452;8.656;2024-03-22T00:19:12;20.38;;;14.32;;
1765;SDS011;880;52.452;8.656;2024-03-22T00:21:38;22.52;;;15.90;;
1765;SDS011;880;52.452;8.656;2024-03-22T00:24:04;19.10;;;15.30;;
1765;SDS011;880;52.452;8.656;2024-03-22T00:26:30;15.75;;;12.10;;
1765;SDS011;880;52.452;8.656;2024-03-22T00:28:57;16.85;;;13.55;;
1765;SDS011;880;52.452;8.656;2024-03-22T00:31:26;14.85;;;12.50;;
1765;SDS011;880;52.452;8.656;2024-03-22T00:33:52;24.48;;;16.92;;
1765;SDS011;880;52.452;8.656;2024-03-22T00:36:18;14.70;;;13.00;;
1765;SDS011;880;52.452;8.656;2024-03-22T00:38:44;19.00;;;12.77;;
1765;SDS011;880;52.452;8.656;2024-03-22T00:41:10;19.98;;;13.98;;
1765;SDS011;880;52.452;8.656;2024-03-22T00:43:36;15.00;;;11.60;;
1765;SDS011;880;52.452;8.656;2024-03-22T00:46:02;16.02;;;11.57;;
1765;SDS011;880;52.452;8.656;2024-03-22T00:48:28;12.10;;;10.85;;
1765;SDS011;880;52.452;8.656;2024-03-22T00:50:55;19.67;;;14.77;;
1765;SDS011;880;52.452;8.656;2024-03-22T00:53:21;24.88;;;16.67;;
1765;SDS011;880;52.452;8.656;2024-03-22T00:55:47;23.50;;;16.13;;
1765;SDS011;880;52.452;8.656;2024-03-22T00:58:19;19.90;;;12.40;;
1765;SDS011;880;52.452;8.656;2024-03-22T01:00:45;26.17;;;16.80;;
1765;SDS011;880;52.452;8.656;2024-03-22T01:03:12;22.67;;;15.18;;
1765;SDS011;880;52.452;8.656;2024-03-22T01:05:38;24.63;;;16.45;;
1765;SDS011;880;52.452;8.656;2024-03-22T01:08:05;27.90;;;17.92;;
1765;SDS011;880;52.452;8.656;2024-03-22T01:10:32;25.67;;;16.80;;
1765;SDS011;880;52.452;8.656;2024-03-22T01:12:59;21.02;;;14.95;;
1765;SDS011;880;52.452;8.656;2024-03-22T01:15:25;17.23;;;13.18;;
1765;SDS011;880;52.452;8.656;2024-03-22T01:17:52;23.70;;;16.50;;
1765;SDS011;880;52.452;8.656;2024-03-22T01:20:18;27.55;;;17.77;;
1765;SDS011;880;52.452;8.656;2024-03-22T01:22:44;20.45;;;15.20;;
1765;SDS011;880;52.452;8.656;2024-03-22T01:25:10;26.75;;;17.13;;
1765;SDS011;880;52.452;8.656;2024-03-22T01:27:36;17.88;;;13.48;;
1765;SDS011;880;52.452;8.656;2024-03-22T01:30:03;24.33;;;17.92;;
1765;SDS011;880;52.452;8.656;2024-03-22T01:32:29;23.60;;;16.58;;
1765;SDS011;880;52.452;8.656;2024-03-22T01:34:56;27.65;;;17.60;;
1765;SDS011;880;52.452;8.656;2024-03-22T01:37:23;28.95;;;17.65;;
1765;SDS011;880;52.452;8.656;2024-03-22T01:39:49;26.80;;;18.45;;
1765;SDS011;880;52.452;8.656;2024-03-22T01:42:15;27.90;;;19.05;;
1765;SDS011;880;52.452;8.656;2024-03-22T01:44:41;17.52;;;14.48;;
1765;SDS011;880;52.452;8.656;2024-03-22T01:47:07;24.85;;;15.88;;
1765;SDS011;880;52.452;8.656;2024-03-22T01:49:33;27.85;;;16.70;;
1765;SDS011;880;52.452;8.656;2024-03-22T01:52:00;26.65;;;18.38;;
1765;SDS011;880;52.452;8.656;2024-03-22T01:54:26;28.02;;;18.55;;
1765;SDS011;880;52.452;8.656;2024-03-22T01:56:52;31.70;;;20.42;;
1765;SDS011;880;52.452;8.656;2024-03-22T01:59:18;34.15;;;19.27;;
1765;SDS011;880;52.452;8.656;2024-03-22T02:01:45;27.85;;;18.48;;
1765;SDS011;880;52.452;8.656;2024-03-22T02:04:11;29.55;;;18.38;;
1765;SDS011;880;52.452;8.656;2024-03-22T02:06:37;25.90;;;19.35;;
1765;SDS011;880;52.452;8.656;2024-03-22T02:09:03;26.27;;;17.52;;
1765;SDS011;880;52.452;8.656;2024-03-22T02:11:30;20.88;;;16.20;;
1765;SDS011;880;52.452;8.656;2024-03-22T02:13:57;30.92;;;20.35;;
1765;SDS011;880;52.452;8.656;2024-03-22T02:16:23;27.65;;;19.65;;
1765;SDS011;880;52.452;8.656;2024-03-22T02:18:49;34.17;;;20.10;;
1765;SDS011;880;52.452;8.656;2024-03-22T02:21:15;28.95;;;18.35;;
1765;SDS011;880;52.452;8.656;2024-03-22T02:23:41;22.15;;;13.77;;
1765;SDS011;880;52.452;8.656;2024-03-22T02:26:07;36.80;;;20.15;;
1765;SDS011;880;52.452;8.656;2024-03-22T02:28:34;19.02;;;14.45;;
1765;SDS011;880;52.452;8.656;2024-03-22T02:31:04;29.45;;;18.70;;
1765;SDS011;880;52.452;8.656;2024-03-22T02:33:30;33.25;;;20.70;;
1765;SDS011;880;52.452;8.656;2024-03-22T02:35:56;31.45;;;20.17;;
1765;SDS011;880;52.452;8.656;2024-03-22T02:38:22;31.95;;;21.05;;
1765;SDS011;880;52.452;8.656;2024-03-22T02:40:49;32.38;;;19.83;;
1765;SDS011;880;52.452;8.656;2024-03-22T02:43:17;30.92;;;20.05;;
1765;SDS011;880;52.452;8.656;2024-03-22T02:45:44;36.40;;;21.58;;
1765;SDS011;880;52.452;8.656;2024-03-22T02:48:11;35.05;;;21.00;;
1765;SDS011;880;52.452;8.656;2024-03-22T02:50:37;32.33;;;20.40;;
1765;SDS011;880;52.452;8.656;2024-03-22T02:53:04;30.15;;;18.85;;
1765;SDS011;880;52.452;8.656;2024-03-22T02:55:35;31.30;;;19.85;;
1765;SDS011;880;52.452;8.656;2024-03-22T02:58:05;30.10;;;18.38;;
1765;SDS011;880;52.452;8.656;2024-03-22T03:00:36;37.00;;;21.95;;
1765;SDS011;880;52.452;8.656;2024-03-22T03:03:06;33.47;;;19.20;;
1765;SDS011;880;52.452;8.656;2024-03-22T03:05:32;34.40;;;20.27;;
1765;SDS011;880;52.452;8.656;2024-03-22T03:08:00;31.58;;;19.00;;
1765;SDS011;880;52.452;8.656;2024-03-22T03:10:26;31.48;;;19.48;;
1765;SDS011;880;52.452;8.656;2024-03-22T03:12:54;34.63;;;23.70;;
1765;SDS011;880;52.452;8.656;2024-03-22T03:15:20;39.60;;;22.15;;
1765;SDS011;880;52.452;8.656;2024-03-22T03:17:46;38.40;;;21.27;;
1765;SDS011;880;52.452;8.656;2024-03-22T03:20:12;35.42;;;22.23;;
1765;SDS011;880;52.452;8.656;2024-03-22T03:22:41;31.80;;;20.73;;
1765;SDS011;880;52.452;8.656;2024-03-22T03:25:08;39.83;;;23.95;;
1765;SDS011;880;52.452;8.656;2024-03-22T03:27:34;44.65;;;24.33;;
1765;SDS011;880;52.452;8.656;2024-03-22T03:30:00;27.10;;;19.45;;
1765;SDS011;880;52.452;8.656;2024-03-22T03:32:27;38.15;;;22.50;;
1765;SDS011;880;52.452;8.656;2024-03-22T03:34:53;44.10;;;23.45;;
1765;SDS011;880;52.452;8.656;2024-03-22T03:37:20;46.40;;;25.23;;
1765;SDS011;880;52.452;8.656;2024-03-22T03:39:46;39.92;;;20.08;;
1765;SDS011;880;52.452;8.656;2024-03-22T03:42:12;40.10;;;23.55;;
1765;SDS011;880;52.452;8.656;2024-03-22T03:44:38;41.03;;;23.45;;
1765;SDS011;880;52.452;8.656;2024-03-22T03:47:04;30.48;;;20.58;;
1765;SDS011;880;52.452;8.656;2024-03-22T03:49:30;44.85;;;23.48;;
1765;SDS011;880;52.452;8.656;2024-03-22T03:51:56;36.60;;;20.30;;
1765;SDS011;880;52.452;8.656;2024-03-22T03:54:22;44.28;;;23.88;;
1765;SDS011;880;52.452;8.656;2024-03-22T03:56:48;46.17;;;24.88;;
1765;SDS011;880;52.452;8.656;2024-03-22T03:59:14;47.10;;;22.73;;
1765;SDS011;880;52.452;8.656;2024-03-22T04:01:40;38.45;;;23.13;;
1765;SDS011;880;52.452;8.656;2024-03-22T04:04:06;37.40;;;23.95;;
1765;SDS011;880;52.452;8.656;2024-03-22T04:06:32;45.67;;;23.05;;
1765;SDS011;880;52.452;8.656;2024-03-22T04:08:59;54.47;;;27.15;;
1765;SDS011;880;52.452;8.656;2024-03-22T04:11:26;50.97;;;25.23;;
1765;SDS011;880;52.452;8.656;2024-03-22T04:13:52;40.97;;;23.27;;
1765;SDS011;880;52.452;8.656;2024-03-22T04:16:18;38.53;;;21.73;;
1765;SDS011;880;52.452;8.656;2024-03-22T04:18:44;41.58;;;23.33;;
1765;SDS011;880;52.452;8.656;2024-03-22T04:21:10;40.90;;;24.10;;
1765;SDS011;880;52.452;8.656;2024-03-22T04:23:36;48.22;;;24.15;;
1765;SDS011;880;52.452;8.656;2024-03-22T04:26:02;30.13;;;20.35;;
1765;SDS011;880;52.452;8.656;2024-03-22T04:28:28;32.35;;;20.65;;
1765;SDS011;880;52.452;8.656;2024-03-22T04:30:59;41.45;;;22.63;;
1765;SDS011;880;52.452;8.656;2024-03-22T04:33:29;35.47;;;21.80;;
1765;SDS011;880;52.452;8.656;2024-03-22T04:35:57;43.58;;;22.55;;
1765;SDS011;880;52.452;8.656;2024-03-22T04:38:24;40.65;;;22.10;;
1765;SDS011;880;52.452;8.656;2024-03-22T04:40:51;53.75;;;25.75;;
1765;SDS011;880;52.452;8.656;2024-03-22T04:43:17;49.72;;;26.60;;
1765;SDS011;880;52.452;8.656;2024-03-22T04:45:44;47.80;;;22.38;;
1765;SDS011;880;52.452;8.656;2024-03-22T04:48:12;47.03;;;24.88;;
1765;SDS011;880;52.452;8.656;2024-03-22T04:50:42;50.60;;;26.58;;
1765;SDS011;880;52.452;8.656;2024-03-22T04:53:08;47.03;;;25.48;;
1765;SDS011;880;52.452;8.656;2024-03-22T04:55:34;32.20;;;19.38;;
1765;SDS011;880;52.452;8.656;2024-03-22T04:58:00;53.83;;;25.98;;
1765;SDS011;880;52.452;8.656;2024-03-22T05:00:27;26.27;;;19.50;;
1765;SDS011;880;52.452;8.656;2024-03-22T05:02:53;41.08;;;23.30;;
1765;SDS011;880;52.452;8.656;2024-03-22T05:05:20;48.00;;;26.80;;
1765;SDS011;880;52.452;8.656;2024-03-22T05:07:46;41.63;;;23.50;;
1765;SDS011;880;52.452;8.656;2024-03-22T05:10:13;44.20;;;24.38;;
1765;SDS011;880;52.452;8.656;2024-03-22T05:12:39;34.45;;;22.55;;
1765;SDS011;880;52.452;8.656;2024-03-22T05:15:05;49.70;;;26.50;;
1765;SDS011;880;52.452;8.656;2024-03-22T05:17:33;45.78;;;23.42;;
1765;SDS011;880;52.452;8.656;2024-03-22T05:19:59;43.33;;;23.02;;
1765;SDS011;880;52.452;8.656;2024-03-22T05:22:25;35.50;;;19.77;;
1765;SDS011;880;52.452;8.656;2024-03-22T05:24:52;33.92;;;22.25;;
1765;SDS011;880;52.452;8.656;2024-03-22T05:27:18;44.83;;;25.38;;
1765;SDS011;880;52.452;8.656;2024-03-22T05:29:44;48.80;;;27.88;;
1765;SDS011;880;52.452;8.656;2024-03-22T05:32:10;57.72;;;30.17;;
1765;SDS011;880;52.452;8.656;2024-03-22T05:34:36;48.33;;;26.52;;
1765;SDS011;880;52.452;8.656;2024-03-22T05:37:02;57.60;;;31.67;;
1765;SDS011;880;52.452;8.656;2024-03-22T05:39:29;33.72;;;23.17;;
1765;SDS011;880;52.452;8.656;2024-03-22T05:41:55;33.05;;;19.88;;
1765;SDS011;880;52.452;8.656;2024-03-22T05:44:21;34.67;;;22.83;;
1765;SDS011;880;52.452;8.656;2024-03-22T05:46:47;41.20;;;23.52;;
1765;SDS011;880;52.452;8.656;2024-03-22T05:49:13;36.17;;;21.77;;
1765;SDS011;880;52.452;8.656;2024-03-22T05:51:39;27.92;;;19.55;;
1765;SDS011;880;52.452;8.656;2024-03-22T05:54:05;27.58;;;20.95;;
1765;SDS011;880;52.452;8.656;2024-03-22T05:56:32;33.67;;;22.60;;
1765;SDS011;880;52.452;8.656;2024-03-22T05:58:59;42.47;;;23.67;;
1765;SDS011;880;52.452;8.656;2024-03-22T06:01:25;41.53;;;23.27;;
1765;SDS011;880;52.452;8.656;2024-03-22T06:03:51;40.47;;;24.23;;
1765;SDS011;880;52.452;8.656;2024-03-22T06:06:17;33.47;;;21.08;;
1765;SDS011;880;52.452;8.656;2024-03-22T06:08:43;47.05;;;26.83;;
1765;SDS011;880;52.452;8.656;2024-03-22T06:11:10;27.52;;;20.98;;
1765;SDS011;880;52.452;8.656;2024-03-22T06:13:36;47.08;;;26.75;;
1765;SDS011;880;52.452;8.656;2024-03-22T06:16:03;46.17;;;26.98;;
1765;SDS011;880;52.452;8.656;2024-03-22T06:18:29;53.92;;;30.80;;
1765;SDS011;880;52.452;8.656;2024-03-22T06:20:55;49.90;;;26.90;;
1765;SDS011;880;52.452;8.656;2024-03-22T06:23:21;39.40;;;24.67;;
1765;SDS011;880;52.452;8.656;2024-03-22T06:25:54;46.47;;;25.77;;
1765;SDS011;880;52.452;8.656;2024-03-22T06:28:21;31.23;;;22.08;;
1765;SDS011;880;52.452;8.656;2024-03-22T06:30:48;30.67;;;21.02;;
1765;SDS011;880;52.452;8.656;2024-03-22T06:33:14;23.48;;;16.10;;
1765;SDS011;880;52.452;8.656;2024-03-22T06:35:41;32.53;;;20.92;;
1765;SDS011;880;52.452;8.656;2024-03-22T06:38:07;33.53;;;21.23;;
1765;SDS011;880;52.452;8.656;2024-03-22T06:40:33;23.95;;;16.70;;
1765;SDS011;880;52.452;8.656;2024-03-22T06:42:59;37.45;;;22.63;;
1765;SDS011;880;52.452;8.656;2024-03-22T06:45:25;36.88;;;20.98;;
1765;SDS011;880;52.452;8.656;2024-03-22T06:47:51;45.03;;;24.80;;
1765;SDS011;880;52.452;8.656;2024-03-22T06:50:17;32.53;;;21.10;;
1765;SDS011;880;52.452;8.656;2024-03-22T06:52:44;45.15;;;28.98;;
1765;SDS011;880;52.452;8.656;2024-03-22T06:55:10;43.10;;;24.42;;
1765;SDS011;880;52.452;8.656;2024-03-22T06:57:37;39.80;;;26.48;;
1765;SDS011;880;52.452;8.656;2024-03-22T07:00:03;43.55;;;27.85;;
1765;SDS011;880;52.452;8.656;2024-03-22T07:02:30;27.42;;;20.80;;
1765;SDS011;880;52.452;8.656;2024-03-22T07:04:56;47.15;;;28.00;;
1765;SDS011;880;52.452;8.656;2024-03-22T07:07:22;60.60;;;33.67;;
1765;SDS011;880;52.452;8.656;2024-03-22T07:09:48;55.95;;;32.55;;
1765;SDS011;880;52.452;8.656;2024-03-22T07:12:14;49.70;;;29.70;;
1765;SDS011;880;52.452;8.656;2024-03-22T07:14:40;40.10;;;27.33;;
1765;SDS011;880;52.452;8.656;2024-03-22T07:17:06;41.80;;;25.55;;
1765;SDS011;880;52.452;8.656;2024-03-22T07:19:32;55.40;;;29.38;;
1765;SDS011;880;52.452;8.656;2024-03-22T07:22:00;30.92;;;22.52;;
1765;SDS011;880;52.452;8.656;2024-03-22T07:24:26;26.63;;;19.77;;
1765;SDS011;880;52.452;8.656;2024-03-22T07:26:52;42.28;;;25.70;;
1765;SDS011;880;52.452;8.656;2024-03-22T07:29:18;22.67;;;19.98;;
1765;SDS011;880;52.452;8.656;2024-03-22T07:31:45;31.40;;;21.20;;
1765;SDS011;880;52.452;8.656;2024-03-22T07:34:11;31.90;;;23.35;;
1765;SDS011;880;52.452;8.656;2024-03-22T07:36:37;40.00;;;22.30;;
1765;SDS011;880;52.452;8.656;2024-03-22T07:39:05;40.20;;;26.23;;
1765;SDS011;880;52.452;8.656;2024-03-22T07:41:34;43.60;;;24.73;;
1765;SDS011;880;52.452;8.656;2024-03-22T07:44:00;37.15;;;23.70;;
1765;SDS011;880;52.452;8.656;2024-03-22T07:46:28;29.80;;;22.88;;
1765;SDS011;880;52.452;8.656;2024-03-22T07:48:54;37.50;;;22.58;;
1765;SDS011;880;52.452;8.656;2024-03-22T07:51:20;29.65;;;19.15;;
1765;SDS011;880;52.452;8.656;2024-03-22T07:53:46;38.95;;;22.75;;
1765;SDS011;880;52.452;8.656;2024-03-22T07:56:12;41.72;;;26.02;;
1765;SDS011;880;52.452;8.656;2024-03-22T07:58:39;44.53;;;25.38;;
1765;SDS011;880;52.452;8.656;2024-03-22T08:01:05;30.00;;;22.30;;
1765;SDS011;880;52.452;8.656;2024-03-22T08:03:31;46.03;;;27.17;;
1765;SDS011;880;52.452;8.656;2024-03-22T08:05:57;42.65;;;25.90;;
1765;SDS011;880;52.452;8.656;2024-03-22T08:08:23;38.42;;;24.60;;
1765;SDS011;880;52.452;8.656;2024-03-22T08:10:49;35.92;;;24.13;;
1765;SDS011;880;52.452;8.656;2024-03-22T08:13:15;29.42;;;23.27;;
1765;SDS011;880;52.452;8.656;2024-03-22T08:15:41;41.97;;;26.33;;
1765;SDS011;880;52.452;8.656;2024-03-22T08:18:09;20.33;;;17.67;;
1765;SDS011;880;52.452;8.656;2024-03-22T08:20:35;32.22;;;22.77;;
1765;SDS011;880;52.452;8.656;2024-03-22T08:23:02;29.30;;;20.38;;
1765;SDS011;880;52.452;8.656;2024-03-22T08:25:28;35.92;;;25.88;;
1765;SDS011;880;52.452;8.656;2024-03-22T08:27:55;23.63;;;20.75;;
1765;SDS011;880;52.452;8.656;2024-03-22T08:30:21;30.73;;;22.17;;
1765;SDS011;880;52.452;8.656;2024-03-22T08:32:48;31.45;;;23.17;;
1765;SDS011;880;52.452;8.656;2024-03-22T08:35:14;37.58;;;23.10;;
1765;SDS011;880;52.452;8.656;2024-03-22T08:37:40;36.08;;;24.75;;
1765;SDS011;880;52.452;8.656;2024-03-22T08:40:07;24.45;;;20.02;;
1765;SDS011;880;52.452;8.656;2024-03-22T08:42:33;26.15;;;21.55;;
1765;SDS011;880;52.452;8.656;2024-03-22T08:44:59;37.92;;;20.83;;
1765;SDS011;880;52.452;8.656;2024-03-22T08:47:25;26.55;;;21.75;;
1765;SDS011;880;52.452;8.656;2024-03-22T08:49:51;24.65;;;19.50;;
1765;SDS011;880;52.452;8.656;2024-03-22T08:52:17;29.00;;;20.73;;
1765;SDS011;880;52.452;8.656;2024-03-22T08:54:43;35.58;;;23.88;;
1765;SDS011;880;52.452;8.656;2024-03-22T08:57:09;26.35;;;20.77;;
1765;SDS011;880;52.452;8.656;2024-03-22T08:59:35;29.45;;;20.58;;
1765;SDS011;880;52.452;8.656;2024-03-22T09:02:03;20.13;;;17.45;;
1765;SDS011;880;52.452;8.656;2024-03-22T09:04:29;30.38;;;21.67;;
1765;SDS011;880;52.452;8.656;2024-03-22T09:06:55;27.10;;;21.13;;
1765;SDS011;880;52.452;8.656;2024-03-22T09:09:21;32.13;;;21.38;;
1765;SDS011;880;52.452;8.656;2024-03-22T09:11:47;27.88;;;19.63;;
1765;SDS011;880;52.452;8.656;2024-03-22T09:14:13;29.48;;;20.35;;
1765;SDS011;880;52.452;8.656;2024-03-22T09:16:39;33.80;;;23.08;;
1765;SDS011;880;52.452;8.656;2024-03-22T09:19:06;24.92;;;17.13;;
1765;SDS011;880;52.452;8.656;2024-03-22T09:21:32;27.60;;;20.58;;
1765;SDS011;880;52.452;8.656;2024-03-22T09:23:58;23.60;;;17.67;;
1765;SDS011;880;52.452;8.656;2024-03-22T09:26:23;26.00;;;21.23;;
1765;SDS011;880;52.452;8.656;2024-03-22T09:28:50;27.63;;;21.63;;
1765;SDS011;880;52.452;8.656;2024-03-22T09:31:16;31.00;;;21.30;;
1765;SDS011;880;52.452;8.656;2024-03-22T09:33:42;29.40;;;22.52;;
1765;SDS011;880;52.452;8.656;2024-03-22T09:36:08;31.95;;;22.77;;
1765;SDS011;880;52.452;8.656;2024-03-22T09:38:34;25.75;;;19.48;;
1765;SDS011;880;52.452;8.656;2024-03-22T09:41:00;31.58;;;21.33;;
1765;SDS011;880;52.452;8.656;2024-03-22T09:43:27;23.25;;;20.60;;
1765;SDS011;880;52.452;8.656;2024-03-22T09:45:56;33.72;;;22.67;;
1765;SDS011;880;52.452;8.656;2024-03-22T09:48:23;31.88;;;20.80;;
1765;SDS011;880;52.452;8.656;2024-03-22T09:50:49;29.30;;;21.15;;
1765;SDS011;880;52.452;8.656;2024-03-22T09:53:18;31.30;;;21.67;;
1765;SDS011;880;52.452;8.656;2024-03-22T09:55:48;20.48;;;16.77;;
1765;SDS011;880;52.452;8.656;2024-03-22T09:58:15;20.30;;;17.60;;
1765;SDS011;880;52.452;8.656;2024-03-22T10:00:44;28.00;;;18.60;;
1765;SDS011;880;52.452;8.656;2024-03-22T10:03:11;39.05;;;22.42;;
1765;SDS011;880;52.452;8.656;2024-03-22T10:05:37;19.20;;;16.38;;
1765;SDS011;880;52.452;8.656;2024-03-22T10:08:03;33.97;;;21.58;;
1765;SDS011;880;52.452;8.656;2024-03-22T10:10:32;24.35;;;19.85;;
1765;SDS011;880;52.452;8.656;2024-03-22T10:13:02;24.98;;;18.88;;
1765;SDS011;880;52.452;8.656;2024-03-22T10:15:32;28.30;;;19.70;;
1765;SDS011;880;52.452;8.656;2024-03-22T10:17:58;33.55;;;23.52;;
1765;SDS011;880;52.452;8.656;2024-03-22T10:20:24;24.25;;;17.73;;
1765;SDS011;880;52.452;8.656;2024-03-22T10:22:57;27.15;;;17.60;;
1765;SDS011;880;52.452;8.656;2024-03-22T10:25:25;31.13;;;22.50;;
1765;SDS011;880;52.452;8.656;2024-03-22T10:27:55;32.08;;;21.85;;
1765;SDS011;880;52.452;8.656;2024-03-22T10:30:22;20.00;;;17.35;;
1765;SDS011;880;52.452;8.656;2024-03-22T10:32:50;23.88;;;19.13;;
1765;SDS011;880;52.452;8.656;2024-03-22T10:35:17;24.20;;;18.70;;
1765;SDS011;880;52.452;8.656;2024-03-22T10:37:43;22.02;;;19.40;;
1765;SDS011;880;52.452;8.656;2024-03-22T10:40:10;20.77;;;17.83;;
1765;SDS011;880;52.452;8.656;2024-03-22T10:42:37;34.80;;;22.95;;
1765;SDS011;880;52.452;8.656;2024-03-22T10:45:06;24.60;;;19.35;;
1765;SDS011;880;52.452;8.656;2024-03-22T10:47:34;20.67;;;16.40;;
1765;SDS011;880;52.452;8.656;2024-03-22T10:52:33;26.60;;;19.48;;
1765;SDS011;880;52.452;8.656;2024-03-22T10:55:05;34.95;;;21.25;;
1765;SDS011;880;52.452;8.656;2024-03-22T10:57:35;22.67;;;15.98;;
1765;SDS011;880;52.452;8.656;2024-03-22T11:00:08;18.80;;;16.77;;
1765;SDS011;880;52.452;8.656;2024-03-22T11:02:36;19.85;;;15.77;;
1765;SDS011;880;52.452;8.656;2024-03-22T11:05:03;23.75;;;16.05;;
1765;SDS011;880;52.452;8.656;2024-03-22T11:07:30;21.50;;;16.55;;
1765;SDS011;880;52.452;8.656;2024-03-22T11:09:57;22.55;;;17.08;;
1765;SDS011;880;52.452;8.656;2024-03-22T11:12:26;22.85;;;18.85;;
1765;SDS011;880;52.452;8.656;2024-03-22T11:14:53;32.38;;;19.25;;
1765;SDS011;880;52.452;8.656;2024-03-22T11:17:20;27.55;;;19.77;;
1765;SDS011;880;52.452;8.656;2024-03-22T11:19:53;21.63;;;19.35;;
1765;SDS011;880;52.452;8.656;2024-03-22T11:22:20;16.40;;;14.15;;
1765;SDS011;880;52.452;8.656;2024-03-22T11:24:46;28.38;;;19.55;;
1765;SDS011;880;52.452;8.656;2024-03-22T11:27:12;19.65;;;16.50;;
1765;SDS011;880;52.452;8.656;2024-03-22T11:29:39;22.67;;;17.80;;
1765;SDS011;880;52.452;8.656;2024-03-22T11:32:09;21.77;;;17.58;;
1765;SDS011;880;52.452;8.656;2024-03-22T11:34:36;27.35;;;19.17;;
1765;SDS011;880;52.452;8.656;2024-03-22T11:37:04;26.85;;;19.50;;
1765;SDS011;880;52.452;8.656;2024-03-22T11:39:38;15.45;;;13.88;;
1765;SDS011;880;52.452;8.656;2024-03-22T11:42:05;15.45;;;13.75;;
1765;SDS011;880;52.452;8.656;2024-03-22T11:44:34;17.65;;;15.23;;
1765;SDS011;880;52.452;8.656;2024-03-22T11:47:03;22.20;;;14.85;;
1765;SDS011;880;52.452;8.656;2024-03-22T11:49:29;29.45;;;18.88;;
1765;SDS011;880;52.452;8.656;2024-03-22T11:51:56;25.95;;;18.52;;
1765;SDS011;880;52.452;8.656;2024-03-22T11:54:22;20.42;;;16.90;;
1765;SDS011;880;52.452;8.656;2024-03-22T11:56:51;21.65;;;15.88;;
1765;SDS011;880;52.452;8.656;2024-03-22T11:59:19;15.35;;;12.88;;
1765;SDS011;880;52.452;8.656;2024-03-22T12:01:46;20.05;;;16.50;;
1765;SDS011;880;52.452;8.656;2024-03-22T12:04:12;24.42;;;16.15;;
1765;SDS011;880;52.452;8.656;2024-03-22T12:06:42;21.55;;;18.10;;
1765;SDS011;880;52.452;8.656;2024-03-22T12:09:10;23.98;;;16.90;;
1765;SDS011;880;52.452;8.656;2024-03-22T12:11:39;22.27;;;17.35;;
1765;SDS011;880;52.452;8.656;2024-03-22T12:14:05;19.48;;;14.90;;
1765;SDS011;880;52.452;8.656;2024-03-22T12:16:31;20.15;;;17.67;;
1765;SDS011;880;52.452;8.656;2024-03-22T12:18:58;22.38;;;18.63;;
1765;SDS011;880;52.452;8.656;2024-03-22T12:21:24;15.07;;;13.00;;
1765;SDS011;880;52.452;8.656;2024-03-22T12:23:51;16.80;;;14.65;;
1765;SDS011;880;52.452;8.656;2024-03-22T12:26:17;14.88;;;13.15;;
1765;SDS011;880;52.452;8.656;2024-03-22T12:28:43;16.65;;;14.40;;
1765;SDS011;880;52.452;8.656;2024-03-22T12:31:09;20.38;;;17.48;;
1765;SDS011;880;52.452;8.656;2024-03-22T12:33:38;16.23;;;14.02;;
1765;SDS011;880;52.452;8.656;2024-03-22T12:36:04;20.15;;;15.02;;
1765;SDS011;880;52.452;8.656;2024-03-22T12:38:30;17.40;;;15.75;;
1765;SDS011;880;52.452;8.656;2024-03-22T12:40:56;18.25;;;15.70;;
1765;SDS011;880;52.452;8.656;2024-03-22T12:43:23;18.48;;;14.70;;
1765;SDS011;880;52.452;8.656;2024-03-22T12:45:49;13.43;;;12.15;;
1765;SDS011;880;52.452;8.656;2024-03-22T12:48:15;15.85;;;14.15;;
1765;SDS011;880;52.452;8.656;2024-03-22T12:50:41;14.10;;;12.63;;
1765;SDS011;880;52.452;8.656;2024-03-22T12:53:07;16.98;;;13.85;;
1765;SDS011;880;52.452;8.656;2024-03-22T12:55:33;19.13;;;17.15;;
1765;SDS011;880;52.452;8.656;2024-03-22T12:57:59;19.58;;;14.38;;
1765;SDS011;880;52.452;8.656;2024-03-22T13:00:25;17.40;;;15.60;;
1765;SDS011;880;52.452;8.656;2024-03-22T13:02:52;16.33;;;14.48;;
1765;SDS011;880;52.452;8.656;2024-03-22T13:05:18;14.18;;;13.05;;
1765;SDS011;880;52.452;8.656;2024-03-22T13:07:44;13.95;;;12.40;;
1765;SDS011;880;52.452;8.656;2024-03-22T13:10:10;15.77;;;13.63;;
1765;SDS011;880;52.452;8.656;2024-03-22T13:12:37;17.90;;;16.15;;
1765;SDS011;880;52.452;8.656;2024-03-22T13:15:03;13.25;;;12.18;;
1765;SDS011;880;52.452;8.656;2024-03-22T13:17:29;16.77;;;14.93;;
1765;SDS011;880;52.452;8.656;2024-03-22T13:19:55;18.00;;;15.93;;
1765;SDS011;880;52.452;8.656;2024-03-22T13:22:22;21.75;;;14.70;;
1765;SDS011;880;52.452;8.656;2024-03-22T13:24:48;17.75;;;15.98;;
1765;SDS011;880;52.452;8.656;2024-03-22T13:27:15;17.30;;;15.27;;
1765;SDS011;880;52.452;8.656;2024-03-22T13:29:42;16.73;;;13.93;;
1765;SDS011;880;52.452;8.656;2024-03-22T13:32:08;15.05;;;13.48;;
1765;SDS011;880;52.452;8.656;2024-03-22T13:34:35;17.33;;;14.95;;
1765;SDS011;880;52.452;8.656;2024-03-22T13:37:01;22.05;;;15.93;;
1765;SDS011;880;52.452;8.656;2024-03-22T13:39:28;14.88;;;13.38;;
1765;SDS011;880;52.452;8.656;2024-03-22T13:41:55;15.00;;;12.45;;
1765;SDS011;880;52.452;8.656;2024-03-22T13:44:22;15.05;;;13.68;;
1765;SDS011;880;52.452;8.656;2024-03-22T13:46:49;16.33;;;14.85;;
1765;SDS011;880;52.452;8.656;2024-03-22T13:49:16;17.80;;;14.88;;
1765;SDS011;880;52.452;8.656;2024-03-22T13:51:46;16.98;;;14.35;;
1765;SDS011;880;52.452;8.656;2024-03-22T13:54:13;16.30;;;14.40;;
1765;SDS011;880;52.452;8.656;2024-03-22T13:56:40;13.02;;;12.00;;
1765;SDS011;880;52.452;8.656;2024-03-22T13:59:06;13.18;;;11.93;;
1765;SDS011;880;52.452;8.656;2024-03-22T14:01:36;13.45;;;12.30;;
1765;SDS011;880;52.452;8.656;2024-03-22T14:04:02;15.52;;;13.90;;
1765;SDS011;880;52.452;8.656;2024-03-22T14:06:30;16.48;;;14.73;;
1765;SDS011;880;52.452;8.656;2024-03-22T14:08:57;17.88;;;16.10;;
1765;SDS011;880;52.452;8.656;2024-03-22T14:11:29;17.65;;;15.73;;
1765;SDS011;880;52.452;8.656;2024-03-22T14:13:58;15.52;;;13.90;;
1765;SDS011;880;52.452;8.656;2024-03-22T14:16:24;13.70;;;12.55;;
1765;SDS011;880;52.452;8.656;2024-03-22T14:18:50;15.52;;;14.00;;
1765;SDS011;880;52.452;8.656;2024-03-22T14:21:17;12.73;;;11.73;;
1765;SDS011;880;52.452;8.656;2024-03-22T14:23:48;15.07;;;12.88;;
1765;SDS011;880;52.452;8.656;2024-03-22T14:26:15;12.93;;;11.73;;
1765;SDS011;880;52.452;8.656;2024-03-22T14:28:42;14.00;;;12.70;;
1765;SDS011;880;52.452;8.656;2024-03-22T14:31:10;15.20;;;13.75;;
1765;SDS011;880;52.452;8.656;2024-03-22T14:33:36;12.60;;;11.55;;
1765;SDS011;880;52.452;8.656;2024-03-22T14:36:03;15.40;;;13.88;;
1765;SDS011;880;52.452;8.656;2024-03-22T14:38:31;15.05;;;13.68;;
1765;SDS011;880;52.452;8.656;2024-03-22T14:40:58;13.95;;;12.65;;
1765;SDS011;880;52.452;8.656;2024-03-22T14:43:24;15.43;;;13.80;;
1765;SDS011;880;52.452;8.656;2024-03-22T14:45:51;13.80;;;12.70;;
1765;SDS011;880;52.452;8.656;2024-03-22T14:48:22;17.02;;;13.00;;
1765;SDS011;880;52.452;8.656;2024-03-22T14:50:49;13.90;;;12.90;;
1765;SDS011;880;52.452;8.656;2024-03-22T14:53:19;15.27;;;13.95;;
1765;SDS011;880;52.452;8.656;2024-03-22T14:55:53;12.98;;;12.05;;
1765;SDS011;880;52.452;8.656;2024-03-22T14:58:26;13.70;;;12.57;;
1765;SDS011;880;52.452;8.656;2024-03-22T15:00:56;14.57;;;13.38;;